Time;durP1;ratioP1;P1;durP2;ratioP2;P2;SDS_P1;SDS_P2;PMS_P1;PMS_P2;Temp;Humidity;BMP_temperature;BMP_pressure;BME280_temperature;BME280_humidity;BME280_pressure;Samples;Min_cycle;Max_cycle;Signal;HPM_P1;HPM_P2
2021/10/13 00:00:53;;;;;;;;;;;;;;;7.73;77.06;97917.31;1591773;87;25044;-87
2021/10/13 00:03:20;;;;;;;;;;;;;;;7.82;77.15;97917.52;1592943;87;22025;-87
2021/10/13 00:05:46;;;;;;;;;;;;;;;7.95;77.26;97922.29;1592702;88;25983;-87
2021/10/13 00:08:15;;;;;;;;;;;;;;;8.07;77.34;97922.41;1593039;88;24686;-87
2021/10/13 00:10:42;;;;;;;;;;;;;;;8.04;77.39;97923.42;1597558;88;20507;-87
2021/10/13 00:13:08;;;;;;;;;;;;;;;8.08;77.43;97920.13;1625404;86;25040;-86
2021/10/13 00:15:34;;;;;;;;;;;;;;;8.09;77.49;97920.50;1592994;88;22124;-87
2021/10/13 00:18:00;;;;;;;;;;;;;;;7.99;77.51;97910.72;1593484;87;26157;-87
2021/10/13 00:20:26;;;;;;;;;;;;;;;7.95;77.57;97901.91;1596733;87;24473;-84
2021/10/13 00:22:52;;;;;;;;;;;;;;;7.87;77.58;97903.72;1593723;87;20423;-84
2021/10/13 00:25:18;;;;;;;;;;;;;;;7.80;77.60;97901.16;1597287;88;25591;-89
2021/10/13 00:27:44;;;;;;;;;;;;;;;7.78;77.62;97904.34;1594918;86;22029;-87
2021/10/13 00:30:11;;;;;;;;;;;;;;;7.85;77.70;97905.61;1594781;87;26051;-89
2021/10/13 00:32:37;;;;;;;;;;;;;;;7.97;77.74;97903.92;1596696;88;24407;-87
2021/10/13 00:35:03;;;;;;;;;;;;;;;8.09;77.81;97910.08;1602330;87;20271;-87
2021/10/13 00:37:31;;;;;;;;;;;;;;;8.10;77.85;97911.28;1600609;87;20334;-86
2021/10/13 00:39:57;;;;;;;;;;;;;;;8.04;77.89;97913.47;1602707;87;22789;-86
2021/10/13 00:42:23;;;;;;;;;;;;;;;8.06;77.96;97915.05;1601304;87;26067;-90
2021/10/13 00:44:50;;;;;;;;;;;;;;;8.13;78.01;97917.58;1582259;89;24087;-87
2021/10/13 00:47:16;;;;;;;;;;;;;;;8.17;78.02;97918.23;1599766;88;20258;-87
2021/10/13 00:49:42;;;;;;;;;;;;;;;8.23;78.06;97923.02;1609366;87;24969;-87
2021/10/13 00:52:08;;;;;;;;;;;;;;;8.24;78.10;97928.58;1597008;88;22536;-83
2021/10/13 00:54:34;;;;;;;;;;;;;;;8.24;78.11;97933.79;1586917;88;21165;-84
2021/10/13 00:57:00;;;;;;;;;;;;;;;8.18;78.11;97923.31;1601339;87;24393;-87
2021/10/13 00:59:26;;;;;;;;;;;;;;;8.17;78.13;97922.14;1622314;87;20267;-87
2021/10/13 01:01:54;;;;;;;;;;;;;;;8.19;78.16;97924.15;1621130;87;25047;-87
2021/10/13 01:04:27;;;;;;;;;;;;;;;8.17;78.17;97917.76;1588167;89;22024;-87
2021/10/13 01:06:55;;;;;;;;;;;;;;;8.12;78.18;97913.33;1592818;87;26247;-90
2021/10/13 01:09:23;;;;;;;;;;;;;;;8.09;78.22;97916.59;1622232;87;24485;-91
2021/10/13 01:12:08;;;;;;;;;;;;;;;8.06;78.22;97925.94;1584949;88;20254;-90
2021/10/13 01:14:41;;;;;;;;;;;;;;;8.04;78.27;97919.52;1584035;88;24930;-84
2021/10/13 01:17:12;;;;;;;;;;;;;;;7.93;78.31;97924.16;1587609;88;21963;-87
2021/10/13 01:19:50;;;;;;;;;;;;;;;7.87;78.32;97927.63;1586114;88;25981;-86
2021/10/13 01:22:28;;;;;;;;;;;;;;;7.85;78.34;97930.36;1588601;88;24495;-86
2021/10/13 01:25:11;;;;;;;;;;;;;;;7.79;78.39;97936.45;1593186;87;20255;-86
2021/10/13 01:27:58;;;;;;;;;;;;;;;7.77;78.43;97937.00;1591741;89;25056;-90
2021/10/13 01:30:25;;;;;;;;;;;;;;;7.69;78.46;97936.69;1567552;88;21971;-86
2021/10/13 01:32:52;;;;;;;;;;;;;;;7.61;78.47;97937.65;1595164;88;26086;-89
2021/10/13 01:35:19;;;;;;;;;;;;;;;7.51;78.48;97943.94;1586709;89;24564;-90
2021/10/13 01:37:48;;;;;;;;;;;;;;;7.40;78.52;97945.94;1596431;88;20445;-87
2021/10/13 01:40:15;;;;;;;;;;;;;;;7.35;78.54;97945.40;1623712;87;26027;-87
2021/10/13 01:42:43;;;;;;;;;;;;;;;7.35;78.56;97947.16;1584965;88;21958;-87
2021/10/13 01:45:10;;;;;;;;;;;;;;;7.32;78.65;97952.55;1585738;88;26838;-86
2021/10/13 01:47:41;;;;;;;;;;;;;;;7.30;78.69;97954.44;1592414;88;24511;-87
2021/10/13 01:50:07;;;;;;;;;;;;;;;7.30;78.79;97955.28;1591812;88;20225;-87
2021/10/13 01:52:34;;;;;;;;;;;;;;;7.30;78.83;97957.04;1594477;88;24403;-88
2021/10/13 01:55:02;;;;;;;;;;;;;;;7.25;78.92;97959.11;1627603;87;22271;-87
2021/10/13 01:57:29;;;;;;;;;;;;;;;7.22;78.97;97955.38;1584957;86;26074;-87
2021/10/13 01:59:57;;;;;;;;;;;;;;;7.18;79.06;97958.66;1601950;88;24469;-87
2021/10/13 02:02:31;;;;;;;;;;;;;;;7.18;79.10;97963.86;1618019;87;20564;-87
2021/10/13 02:05:01;;;;;;;;;;;;;;;7.18;79.17;97963.02;1619965;87;25899;-90
2021/10/13 02:07:30;;;;;;;;;;;;;;;7.19;79.22;97961.62;1607080;88;22078;-87
2021/10/13 02:09:58;;;;;;;;;;;;;;;7.17;79.29;97963.95;1576260;90;26048;-84
2021/10/13 02:12:26;;;;;;;;;;;;;;;7.12;79.33;97963.78;1600367;88;24656;-83
2021/10/13 02:14:52;;;;;;;;;;;;;;;7.09;79.35;97971.77;1597420;88;20305;-83
2021/10/13 02:17:19;;;;;;;;;;;;;;;7.04;79.39;97975.13;1605266;88;25486;-89
2021/10/13 02:19:48;;;;;;;;;;;;;;;7.02;79.43;97974.41;1606130;88;20382;-86
2021/10/13 02:22:15;;;;;;;;;;;;;;;7.02;79.49;97983.51;1573504;88;26076;-87
2021/10/13 02:24:46;;;;;;;;;;;;;;;7.01;79.53;97984.89;1620530;87;24627;-87
2021/10/13 02:27:14;;;;;;;;;;;;;;;7.01;79.59;97983.59;1614280;87;20592;-86
2021/10/13 02:29:40;;;;;;;;;;;;;;;6.99;79.65;97990.19;1613941;87;25759;-86
2021/10/13 02:32:06;;;;;;;;;;;;;;;6.95;79.69;97994.38;1599289;88;21805;-86
2021/10/13 02:34:33;;;;;;;;;;;;;;;6.94;79.74;97998.75;1613754;87;26064;-86
2021/10/13 02:36:59;;;;;;;;;;;;;;;6.96;79.78;98002.56;1598291;88;25126;-86
2021/10/13 02:39:25;;;;;;;;;;;;;;;6.92;79.83;97998.02;1570804;89;20302;-86
2021/10/13 02:41:52;;;;;;;;;;;;;;;6.87;79.86;97997.48;1600609;88;24933;-87
2021/10/13 02:44:18;;;;;;;;;;;;;;;6.85;79.88;97999.33;1602873;88;21955;-87
2021/10/13 02:47:07;;;;;;;;;;;;;;;6.82;79.89;98008.59;1582471;89;26046;-89
2021/10/13 02:49:35;;;;;;;;;;;;;;;6.79;79.92;98005.36;1567004;90;24530;-87
2021/10/13 02:52:03;;;;;;;;;;;;;;;6.78;79.95;98016.23;1573682;88;20284;-87
2021/10/13 02:54:31;;;;;;;;;;;;;;;6.76;79.97;98013.37;1598385;89;25049;-87
2021/10/13 02:56:59;;;;;;;;;;;;;;;6.75;80.00;98015.12;1622191;87;22082;-87
2021/10/13 02:59:41;;;;;;;;;;;;;;;6.72;80.03;98010.94;1593525;88;26038;-87
2021/10/13 03:02:06;;;;;;;;;;;;;;;6.69;80.04;98015.50;1596783;88;24494;-87
2021/10/13 03:04:35;;;;;;;;;;;;;;;6.63;80.07;98015.41;1582436;87;20360;-84
2021/10/13 03:07:06;;;;;;;;;;;;;;;6.54;80.07;98019.87;1595766;89;24978;-86
2021/10/13 03:09:33;;;;;;;;;;;;;;;6.53;80.08;98019.95;1618965;87;21429;-85
2021/10/13 03:12:01;;;;;;;;;;;;;;;6.53;80.11;98025.16;1619329;86;26660;-84
2021/10/13 03:14:28;;;;;;;;;;;;;;;6.57;80.13;98025.33;1586086;88;25194;-87
2021/10/13 03:16:55;;;;;;;;;;;;;;;6.60;80.18;98027.77;1613762;88;20311;-87
2021/10/13 03:19:22;;;;;;;;;;;;;;;6.64;80.21;98033.14;1593626;89;24978;-87
2021/10/13 03:21:49;;;;;;;;;;;;;;;6.63;80.24;98034.91;1621744;87;22066;-87
2021/10/13 03:24:17;;;;;;;;;;;;;;;6.65;80.29;98036.96;1621481;87;26163;-89
2021/10/13 03:26:48;;;;;;;;;;;;;;;6.67;80.31;98035.08;1614660;87;24693;-82
2021/10/13 03:29:14;;;;;;;;;;;;;;;6.73;80.33;98038.62;1624251;86;20476;-87
2021/10/13 03:31:41;;;;;;;;;;;;;;;6.78;80.36;98040.93;1622586;87;25037;-83
2021/10/13 03:34:08;;;;;;;;;;;;;;;6.84;80.36;98041.86;1619791;87;22038;-84
2021/10/13 03:36:40;;;;;;;;;;;;;;;6.89;80.39;98050.22;1616239;87;26063;-83
2021/10/13 03:39:07;;;;;;;;;;;;;;;6.91;80.39;98053.58;1626440;87;24745;-83
2021/10/13 03:41:33;;;;;;;;;;;;;;;6.95;80.40;98055.05;1617445;87;20352;-87
2021/10/13 03:43:59;;;;;;;;;;;;;;;7.01;80.43;98063.78;1591261;88;24982;-89
2021/10/13 03:46:32;;;;;;;;;;;;;;;7.05;80.40;98069.16;1597852;88;21919;-89
2021/10/13 03:48:58;;;;;;;;;;;;;;;7.06;80.41;98076.04;1594000;89;26072;-86
2021/10/13 03:51:24;;;;;;;;;;;;;;;7.03;80.39;98071.04;1605190;88;24501;-87
2021/10/13 03:53:50;;;;;;;;;;;;;;;7.02;80.38;98081.53;1601844;88;20264;-87
2021/10/13 03:56:17;;;;;;;;;;;;;;;6.98;80.39;98082.16;1602097;88;24945;-88
2021/10/13 03:58:43;;;;;;;;;;;;;;;6.97;80.37;98081.81;1629935;85;22060;-83
2021/10/13 04:01:09;;;;;;;;;;;;;;;6.87;80.35;98082.01;1625293;87;26217;-87
2021/10/13 04:03:36;;;;;;;;;;;;;;;6.80;80.32;98079.40;1650107;85;24506;-84
2021/10/13 04:06:03;;;;;;;;;;;;;;;6.79;80.32;98077.72;1651183;85;20284;-83
2021/10/13 04:08:29;;;;;;;;;;;;;;;6.75;80.29;98085.34;1648189;85;24770;-83
2021/10/13 04:10:55;;;;;;;;;;;;;;;6.66;80.29;98082.81;1658516;85;22212;-83
2021/10/13 04:13:21;;;;;;;;;;;;;;;6.58;80.26;98087.64;1646225;85;26060;-86
2021/10/13 04:15:49;;;;;;;;;;;;;;;6.52;80.26;98087.16;1669830;85;20261;-88
2021/10/13 04:18:15;;;;;;;;;;;;;;;6.50;80.27;98094.20;1637490;86;20209;-88
2021/10/13 04:20:41;;;;;;;;;;;;;;;6.48;80.30;98091.72;1654929;85;25917;-88
2021/10/13 04:23:08;;;;;;;;;;;;;;;6.47;80.30;98096.53;1636296;87;22240;-87
2021/10/13 04:25:34;;;;;;;;;;;;;;;6.48;80.34;98096.08;1643994;86;25951;-87
2021/10/13 04:28:00;;;;;;;;;;;;;;;6.45;80.37;98096.23;1646172;86;24421;-86
2021/10/13 04:30:26;;;;;;;;;;;;;;;6.44;80.40;98091.96;1650598;85;20217;-83
2021/10/13 04:32:52;;;;;;;;;;;;;;;6.41;80.43;98093.45;1653767;85;24944;-83
2021/10/13 04:35:18;;;;;;;;;;;;;;;6.41;80.47;98097.35;1629718;87;21934;-84
2021/10/13 04:37:44;;;;;;;;;;;;;;;6.43;80.51;98107.20;1654111;85;26849;-84
2021/10/13 04:40:11;;;;;;;;;;;;;;;6.42;80.55;98112.02;1656092;85;25130;-84
2021/10/13 04:42:37;;;;;;;;;;;;;;;6.41;80.60;98112.95;1650250;86;20230;-86
2021/10/13 04:45:04;;;;;;;;;;;;;;;6.45;80.65;98118.33;1655774;85;24937;-82
2021/10/13 04:47:30;;;;;;;;;;;;;;;6.46;80.69;98118.71;1658543;85;21954;-82
2021/10/13 04:49:59;;;;;;;;;;;;;;;6.48;80.74;98120.77;1648791;85;26182;-82
2021/10/13 04:52:25;;;;;;;;;;;;;;;6.52;80.78;98121.80;1659035;84;24536;-82
2021/10/13 04:54:51;;;;;;;;;;;;;;;6.55;80.82;98126.80;1650610;85;20297;-83
2021/10/13 04:57:18;;;;;;;;;;;;;;;6.53;80.88;98127.83;1660430;84;25097;-83
2021/10/13 04:59:44;;;;;;;;;;;;;;;6.49;80.90;98134.14;1639304;85;22000;-83
2021/10/13 05:02:11;;;;;;;;;;;;;;;6.51;80.93;98134.88;1633915;86;26642;-82
2021/10/13 05:04:37;;;;;;;;;;;;;;;6.46;80.97;98141.64;1638756;86;24509;-86
2021/10/13 05:07:03;;;;;;;;;;;;;;;6.41;80.95;98146.73;1640826;86;20256;-84
2021/10/13 05:09:29;;;;;;;;;;;;;;;6.36;80.96;98144.41;1640196;86;24997;-86
2021/10/13 05:11:56;;;;;;;;;;;;;;;6.35;80.95;98154.42;1640578;85;21960;-87
2021/10/13 05:14:22;;;;;;;;;;;;;;;6.34;80.96;98155.34;1639870;85;26043;-87
2021/10/13 05:16:48;;;;;;;;;;;;;;;6.36;80.97;98163.06;1643198;86;24724;-84
2021/10/13 05:19:16;;;;;;;;;;;;;;;6.34;80.96;98164.89;1605678;87;20183;-82
2021/10/13 05:21:42;;;;;;;;;;;;;;;6.36;80.96;98169.55;1645500;86;25021;-82
2021/10/13 05:24:09;;;;;;;;;;;;;;;6.34;80.98;98170.93;1640265;85;22014;-87
2021/10/13 05:26:35;;;;;;;;;;;;;;;6.40;80.99;98176.24;1627569;86;26093;-82
2021/10/13 05:29:04;;;;;;;;;;;;;;;6.47;81.02;98182.78;1584999;87;24250;-82
2021/10/13 05:31:34;;;;;;;;;;;;;;;6.52;81.07;98180.75;1627091;86;20472;-85
2021/10/13 05:34:00;;;;;;;;;;;;;;;6.51;81.09;98190.77;1633968;86;25064;-83
2021/10/13 05:36:26;;;;;;;;;;;;;;;6.54;81.14;98189.31;1639364;86;21953;-86
2021/10/13 05:38:56;;;;;;;;;;;;;;;6.55;81.14;98185.30;1642325;86;26169;-85
2021/10/13 05:41:22;;;;;;;;;;;;;;;6.59;81.17;98189.88;1636975;86;24561;-86
2021/10/13 05:43:48;;;;;;;;;;;;;;;6.62;81.20;98192.28;1643168;86;20241;-86
2021/10/13 05:46:14;;;;;;;;;;;;;;;6.63;81.21;98196.11;1644091;86;24931;-82
2021/10/13 05:48:40;;;;;;;;;;;;;;;6.64;81.21;98196.95;1646671;86;21955;-87
2021/10/13 05:51:08;;;;;;;;;;;;;;;6.61;81.21;98201.00;1634466;85;26860;-83
2021/10/13 05:53:34;;;;;;;;;;;;;;;6.57;81.20;98207.31;1637062;86;24442;-82
2021/10/13 05:56:00;;;;;;;;;;;;;;;6.55;81.20;98206.09;1639434;86;20241;-89
2021/10/13 05:58:27;;;;;;;;;;;;;;;6.55;81.20;98211.30;1604187;87;25000;-88
2021/10/13 06:00:54;;;;;;;;;;;;;;;6.52;81.21;98210.64;1577288;89;22082;-82
2021/10/13 06:03:20;;;;;;;;;;;;;;;6.56;81.21;98215.58;1599945;87;26162;-82
2021/10/13 06:05:47;;;;;;;;;;;;;;;6.61;81.22;98217.45;1598238;88;24594;-82
2021/10/13 06:08:13;;;;;;;;;;;;;;;6.61;81.25;98221.34;1625528;85;20595;-88
2021/10/13 06:10:39;;;;;;;;;;;;;;;6.61;81.26;98220.50;1599052;88;24985;-86
2021/10/13 06:13:06;;;;;;;;;;;;;;;6.60;81.28;98222.76;1586087;88;22084;-86
2021/10/13 06:15:34;;;;;;;;;;;;;;;6.57;81.24;98225.52;1599381;88;25996;-85
2021/10/13 06:18:05;;;;;;;;;;;;;;;6.54;81.26;98226.55;1598929;88;25296;-82
2021/10/13 06:20:31;;;;;;;;;;;;;;;6.58;81.26;98233.69;1600072;88;20263;-88
2021/10/13 06:23:00;;;;;;;;;;;;;;;6.63;81.28;98231.20;1592175;88;25019;-82
2021/10/13 06:25:31;;;;;;;;;;;;;;;6.69;81.33;98235.22;1607840;87;22822;-86
2021/10/13 06:27:57;;;;;;;;;;;;;;;6.74;81.34;98238.39;1607145;88;25988;-88
2021/10/13 06:30:23;;;;;;;;;;;;;;;6.80;81.36;98243.70;1607172;88;24441;-83
2021/10/13 06:32:49;;;;;;;;;;;;;;;6.82;81.39;98253.08;1607015;87;20556;-85
2021/10/13 06:35:16;;;;;;;;;;;;;;;6.86;81.42;98259.80;1583553;89;24944;-86
2021/10/13 06:37:42;;;;;;;;;;;;;;;6.87;81.44;98256.28;1598852;88;22036;-83
2021/10/13 06:40:08;;;;;;;;;;;;;;;6.88;81.45;98256.63;1599545;87;25951;-85
2021/10/13 06:42:34;;;;;;;;;;;;;;;6.92;81.48;98262.51;1622517;86;24616;-85
2021/10/13 06:45:00;;;;;;;;;;;;;;;6.95;81.51;98273.56;1585320;88;20298;-88
2021/10/13 06:47:27;;;;;;;;;;;;;;;7.00;81.51;98271.99;1585563;88;25056;-88
2021/10/13 06:49:56;;;;;;;;;;;;;;;7.03;81.51;98276.58;1583783;88;21616;-86
2021/10/13 06:52:22;;;;;;;;;;;;;;;7.07;81.53;98269.42;1585660;88;26851;-87
2021/10/13 06:54:53;;;;;;;;;;;;;;;7.10;81.55;98277.87;1585288;88;24557;-88
2021/10/13 06:57:22;;;;;;;;;;;;;;;7.04;81.53;98270.42;1587171;88;20511;-88
2021/10/13 06:59:57;;;;;;;;;;;;;;;7.01;81.48;98278.87;1605901;87;24877;-86
2021/10/13 07:02:24;;;;;;;;;;;;;;;7.03;81.47;98273.98;1583507;88;22036;-83
2021/10/13 07:04:50;;;;;;;;;;;;;;;7.00;81.44;98267.62;1592299;89;26186;-88
2021/10/13 07:07:18;;;;;;;;;;;;;;;6.96;81.43;98270.05;1603320;89;20356;-85
2021/10/13 07:09:44;;;;;;;;;;;;;;;6.94;81.42;98267.98;1557548;90;20189;-85
2021/10/13 07:12:10;;;;;;;;;;;;;;;6.95;81.41;98274.87;1591685;88;25014;-86
2021/10/13 07:14:36;;;;;;;;;;;;;;;6.93;81.42;98276.70;1621786;87;22037;-85
2021/10/13 07:17:02;;;;;;;;;;;;;;;6.94;81.42;98284.05;1627785;87;26057;-88
2021/10/13 07:19:28;;;;;;;;;;;;;;;6.94;81.43;98288.80;1583225;88;24462;-86
2021/10/13 07:21:54;;;;;;;;;;;;;;;6.94;81.42;98286.65;1587443;89;20271;-86
2021/10/13 07:24:20;;;;;;;;;;;;;;;6.94;81.45;98293.16;1593365;88;25019;-84
2021/10/13 07:26:46;;;;;;;;;;;;;;;6.95;81.48;98293.08;1622506;86;21986;-86
2021/10/13 07:29:13;;;;;;;;;;;;;;;6.97;81.51;98293.00;1585357;88;26022;-88
2021/10/13 07:31:39;;;;;;;;;;;;;;;6.99;81.54;98290.66;1588328;89;24639;-87
2021/10/13 07:34:11;;;;;;;;;;;;;;;7.05;81.55;98293.37;1591469;89;20845;-87
2021/10/13 07:36:37;;;;;;;;;;;;;;;7.05;81.56;98296.81;1562636;90;25163;-85
2021/10/13 07:39:04;;;;;;;;;;;;;;;7.08;81.59;98299.72;1598286;88;21985;-84
2021/10/13 07:41:30;;;;;;;;;;;;;;;7.12;81.60;98301.21;1601354;89;26019;-84
2021/10/13 07:43:57;;;;;;;;;;;;;;;7.14;81.61;98303.27;1583032;88;24427;-86
2021/10/13 07:46:25;;;;;;;;;;;;;;;7.17;81.63;98304.84;1587414;89;20288;-86
2021/10/13 07:48:52;;;;;;;;;;;;;;;7.19;81.63;98306.91;1597252;87;25048;-86
2021/10/13 07:51:18;;;;;;;;;;;;;;;7.16;81.62;98313.11;1597410;87;22619;-86
2021/10/13 07:53:44;;;;;;;;;;;;;;;7.14;81.63;98318.42;1561570;90;26051;-86
2021/10/13 07:56:11;;;;;;;;;;;;;;;7.18;81.63;98319.08;1591683;89;24500;-85
2021/10/13 07:58:37;;;;;;;;;;;;;;;7.22;81.63;98323.63;1576765;87;20308;-86
2021/10/13 08:01:04;;;;;;;;;;;;;;;7.31;81.65;98327.83;1655255;85;39006;-86
2021/10/13 08:03:32;;;;;;;;;;;;;;;7.35;81.66;98323.30;1649541;85;22610;-84
2021/10/13 08:05:58;;;;;;;;;;;;;;;7.38;81.66;98328.31;1658468;85;25982;-85
2021/10/13 08:08:24;;;;;;;;;;;;;;;7.36;81.65;98332.33;1658533;85;24445;-83
2021/10/13 08:10:50;;;;;;;;;;;;;;;7.30;81.63;98329.24;1696291;83;20293;-86
2021/10/13 08:13:16;;;;;;;;;;;;;;;7.26;81.62;98331.16;1649822;85;25726;-85
2021/10/13 08:15:42;;;;;;;;;;;;;;;7.32;81.61;98334.72;1658560;85;22144;-82
2021/10/13 08:18:08;;;;;;;;;;;;;;;7.36;81.64;98336.70;1658523;85;26033;-82
2021/10/13 08:20:34;;;;;;;;;;;;;;;7.31;81.63;98338.73;1698554;83;24543;-85
2021/10/13 08:23:00;;;;;;;;;;;;;;;7.37;81.63;98341.79;1660244;85;20261;-82
2021/10/13 08:25:28;;;;;;;;;;;;;;;7.38;81.64;98345.23;1657293;85;24930;-84
2021/10/13 08:27:54;;;;;;;;;;;;;;;7.34;81.63;98350.25;1650428;86;22714;-82
2021/10/13 08:30:20;;;;;;;;;;;;;;;7.32;81.63;98349.49;1624329;87;20970;-82
2021/10/13 08:32:46;;;;;;;;;;;;;;;7.31;81.61;98350.45;1657924;85;24509;-88
2021/10/13 08:35:12;;;;;;;;;;;;;;;7.33;81.61;98354.62;1653199;86;20313;-87
2021/10/13 08:37:38;;;;;;;;;;;;;;;7.41;81.62;98356.79;1631894;87;24946;-83
2021/10/13 08:40:06;;;;;;;;;;;;;;;7.44;81.65;98358.73;1623475;87;21932;-84
2021/10/13 08:42:32;;;;;;;;;;;;;;;7.52;81.65;98357.84;1616451;87;26072;-82
2021/10/13 08:44:58;;;;;;;;;;;;;;;7.51;81.66;98359.23;1659788;85;24486;-82
2021/10/13 08:47:24;;;;;;;;;;;;;;;7.61;81.69;98356.91;1658358;85;20230;-84
2021/10/13 08:49:51;;;;;;;;;;;;;;;7.61;81.72;98360.36;1647355;85;25780;-84
2021/10/13 08:52:17;;;;;;;;;;;;;;;7.73;81.73;98360.09;1636216;87;22850;-87
2021/10/13 08:54:43;;;;;;;;;;;;;;;7.86;81.78;98354.52;1650658;86;26556;-85
2021/10/13 08:57:19;;;;;;;;;;;;;;;7.95;81.82;98356.58;1651799;86;24393;-82
2021/10/13 08:59:48;;;;;;;;;;;;;;;7.91;81.83;98365.03;1653034;85;20447;-88
2021/10/13 09:02:17;;;;;;;;;;;;;;;7.84;81.81;98355.09;1650971;85;25910;-86
2021/10/13 09:05:03;;;;;;;;;;;;;;;7.85;81.81;98355.47;1654270;86;21984;-85
2021/10/13 09:07:29;;;;;;;;;;;;;;;7.83;81.79;98354.70;1659053;85;26038;-86
2021/10/13 09:09:56;;;;;;;;;;;;;;;7.83;81.78;98350.80;1659442;86;24354;-86
2021/10/13 09:12:29;;;;;;;;;;;;;;;7.85;81.78;98351.09;1652636;86;20248;-86
2021/10/13 09:14:57;;;;;;;;;;;;;;;7.88;81.77;98352.20;1648614;86;25670;-86
2021/10/13 09:17:23;;;;;;;;;;;;;;;7.87;81.74;98352.28;1647942;85;22012;-83
2021/10/13 09:19:49;;;;;;;;;;;;;;;7.85;81.73;98348.49;1646580;86;21618;-85
2021/10/13 09:22:16;;;;;;;;;;;;;;;7.84;81.71;98349.41;1654636;86;24485;-85
2021/10/13 09:24:43;;;;;;;;;;;;;;;7.87;81.70;98353.59;1647587;86;20272;-85
2021/10/13 09:27:17;;;;;;;;;;;;;;;7.88;81.71;98346.98;1650216;86;25039;-85
2021/10/13 09:29:44;;;;;;;;;;;;;;;7.89;81.71;98349.13;1653433;85;22419;-88
2021/10/13 09:32:10;;;;;;;;;;;;;;;7.93;81.71;98363.64;1649514;86;25970;-88
2021/10/13 09:34:38;;;;;;;;;;;;;;;7.97;81.74;98354.23;1650509;86;24467;-86
2021/10/13 09:37:04;;;;;;;;;;;;;;;8.00;81.79;98357.14;1651598;86;20281;-86
2021/10/13 09:39:30;;;;;;;;;;;;;;;8.02;81.79;98359.17;1651702;86;24973;-86
2021/10/13 09:41:58;;;;;;;;;;;;;;;8.07;81.81;98359.75;1649919;86;21967;-83
2021/10/13 09:44:28;;;;;;;;;;;;;;;8.11;81.81;98366.91;1652058;86;26010;-86
2021/10/13 09:46:58;;;;;;;;;;;;;;;8.13;81.79;98367.66;1651449;85;24457;-83
2021/10/13 09:49:26;;;;;;;;;;;;;;;8.12;81.79;98369.43;1649260;86;20201;-84
2021/10/13 09:51:54;;;;;;;;;;;;;;;8.04;81.75;98369.51;1653139;86;25204;-85
2021/10/13 09:54:23;;;;;;;;;;;;;;;8.03;81.72;98365.22;1649846;86;22700;-84
2021/10/13 09:56:49;;;;;;;;;;;;;;;8.02;81.69;98374.00;1649391;84;26073;-85
2021/10/13 09:59:22;;;;;;;;;;;;;;;8.02;81.67;98368.78;1649617;86;24444;-84
2021/10/13 10:01:55;;;;;;;;;;;;;;;8.09;81.68;98371.37;1608756;87;20236;-87
2021/10/13 10:04:26;;;;;;;;;;;;;;;8.15;81.70;98372.30;1607076;88;25033;-82
2021/10/13 10:06:53;;;;;;;;;;;;;;;8.19;81.71;98366.80;1578215;88;21844;-88
2021/10/13 10:09:21;;;;;;;;;;;;;;;8.28;81.75;98377.98;1592013;88;26181;-87
2021/10/13 10:11:47;;;;;;;;;;;;;;;8.36;81.77;98372.31;1614390;87;25536;-82
2021/10/13 10:14:37;;;;;;;;;;;;;;;8.41;81.76;98371.56;1612834;87;20572;-82
2021/10/13 10:17:07;;;;;;;;;;;;;;;8.47;81.77;98371.65;1612931;87;25091;-83
2021/10/13 10:19:40;;;;;;;;;;;;;;;8.54;81.74;98373.79;1610192;87;22159;-85
2021/10/13 10:22:14;;;;;;;;;;;;;;;8.51;81.73;98372.66;1612360;87;26780;-84
2021/10/13 10:24:42;;;;;;;;;;;;;;;8.54;81.70;98375.56;1613156;87;24547;-87
2021/10/13 10:27:26;;;;;;;;;;;;;;;8.59;81.68;98382.16;1615637;86;20286;-82
2021/10/13 10:30:12;;;;;;;;;;;;;;;8.63;81.66;98378.89;1612255;87;25038;-86
2021/10/13 10:32:39;;;;;;;;;;;;;;;8.70;81.61;98376.27;1615861;87;22174;-86
2021/10/13 10:35:07;;;;;;;;;;;;;;;8.68;81.56;98382.88;1614208;87;25765;-86
2021/10/13 10:37:48;;;;;;;;;;;;;;;8.59;81.49;98381.33;1615814;87;24443;-87
2021/10/13 10:40:22;;;;;;;;;;;;;;;8.65;81.42;98377.87;1610654;87;20225;-86
2021/10/13 10:42:49;;;;;;;;;;;;;;;8.72;81.36;98375.72;1611860;87;25075;-86
2021/10/13 10:45:18;;;;;;;;;;;;;;;8.78;81.34;98385.77;1614596;87;21642;-86
2021/10/13 10:47:52;;;;;;;;;;;;;;;8.81;81.33;98385.56;1611540;87;26028;-86
2021/10/13 10:50:31;;;;;;;;;;;;;;;8.90;81.32;98386.73;1611825;87;24312;-86
2021/10/13 10:53:14;;;;;;;;;;;;;;;8.98;81.31;98390.55;1612714;87;20278;-88
2021/10/13 10:55:42;;;;;;;;;;;;;;;9.03;81.27;98390.25;1613291;87;25053;-86
2021/10/13 10:58:15;;;;;;;;;;;;;;;9.05;81.24;98391.00;1610660;87;22132;-86
2021/10/13 11:00:43;;;;;;;;;;;;;;;9.06;81.20;98385.66;1631982;85;26088;-81
2021/10/13 11:03:22;;;;;;;;;;;;;;;9.06;81.11;98386.96;1649184;85;25265;-86
2021/10/13 11:05:48;;;;;;;;;;;;;;;9.11;81.09;98383.58;1649715;86;20212;-87
2021/10/13 11:08:14;;;;;;;;;;;;;;;9.13;81.05;98388.25;1646913;85;20219;-84
2021/10/13 11:10:41;;;;;;;;;;;;;;;9.13;80.98;98384.33;1632978;87;21926;-81
2021/10/13 11:13:09;;;;;;;;;;;;;;;9.10;80.91;98383.23;1658690;85;25972;-82
2021/10/13 11:15:39;;;;;;;;;;;;;;;9.15;80.81;98385.08;1648210;86;24772;-84
2021/10/13 11:18:09;;;;;;;;;;;;;;;9.24;80.76;98379.72;1658074;85;20501;-86
2021/10/13 11:20:35;;;;;;;;;;;;;;;9.36;80.72;98378.08;1652350;85;25781;-86
2021/10/13 11:23:03;;;;;;;;;;;;;;;9.46;80.67;98381.30;1649996;86;20211;-84
2021/10/13 11:25:29;;;;;;;;;;;;;;;9.47;80.59;98380.83;1658649;85;26794;-84
2021/10/13 11:27:59;;;;;;;;;;;;;;;9.49;80.46;98386.80;1658484;85;25224;-88
2021/10/13 11:30:25;;;;;;;;;;;;;;;9.53;80.37;98381.73;1657114;85;20471;-86
2021/10/13 11:32:51;;;;;;;;;;;;;;;9.54;80.27;98391.25;1658335;85;25048;-84
2021/10/13 11:35:20;;;;;;;;;;;;;;;9.49;80.16;98385.48;1653824;86;20243;-83
2021/10/13 11:37:48;;;;;;;;;;;;;;;9.54;80.06;98393.39;1627726;87;26076;-86
2021/10/13 11:40:17;;;;;;;;;;;;;;;9.52;79.98;98390.03;1643232;86;24529;-88
2021/10/13 11:42:43;;;;;;;;;;;;;;;9.54;79.87;98385.55;1652046;86;20533;-88
2021/10/13 11:45:14;;;;;;;;;;;;;;;9.58;79.80;98387.48;1643335;86;24962;-86
2021/10/13 11:47:40;;;;;;;;;;;;;;;9.59;79.72;98390.47;1642300;86;21968;-88
2021/10/13 11:50:09;;;;;;;;;;;;;;;9.57;79.67;98381.42;1648780;86;26007;-88
2021/10/13 11:52:37;;;;;;;;;;;;;;;9.56;79.59;98386.73;1645611;84;24521;-88
2021/10/13 11:55:05;;;;;;;;;;;;;;;9.63;79.53;98384.09;1647122;86;20274;-86
2021/10/13 11:57:31;;;;;;;;;;;;;;;9.70;79.46;98381.45;1644009;86;25001;-86
2021/10/13 12:00:11;;;;;;;;;;;;;;;9.72;79.40;98376.94;1647579;86;21949;-88
2021/10/13 12:02:37;;;;;;;;;;;;;;;9.72;79.33;98380.02;1639134;87;26148;-84
2021/10/13 12:05:05;;;;;;;;;;;;;;;9.67;79.19;98380.33;1646978;86;24584;-84
2021/10/13 12:07:33;;;;;;;;;;;;;;;9.68;79.09;98382.00;1658673;85;20365;-82
2021/10/13 12:10:01;;;;;;;;;;;;;;;9.53;78.99;98390.41;1654454;85;25309;-81
2021/10/13 12:12:27;;;;;;;;;;;;;;;9.35;78.82;98392.91;1656728;84;22042;-89
2021/10/13 12:14:54;;;;;;;;;;;;;;;9.27;78.69;98398.28;1646807;86;26168;-85
2021/10/13 12:17:24;;;;;;;;;;;;;;;9.20;78.59;98397.83;1623603;87;24469;-85
2021/10/13 12:19:50;;;;;;;;;;;;;;;9.11;78.50;98403.66;1648534;85;20495;-85
2021/10/13 12:22:16;;;;;;;;;;;;;;;9.10;78.45;98401.98;1645350;86;20719;-90
2021/10/13 12:24:43;;;;;;;;;;;;;;;9.09;78.43;98399.00;1655430;85;20368;-85
2021/10/13 12:27:10;;;;;;;;;;;;;;;9.12;78.40;98404.00;1658291;85;26042;-86
2021/10/13 12:29:42;;;;;;;;;;;;;;;9.10;78.41;98404.59;1653924;85;24511;-87
2021/10/13 12:32:18;;;;;;;;;;;;;;;9.07;78.43;98401.70;1658833;84;20200;-89
2021/10/13 12:34:44;;;;;;;;;;;;;;;9.03;78.42;98402.00;1657804;85;25124;-86
2021/10/13 12:37:10;;;;;;;;;;;;;;;9.09;78.44;98407.67;1636944;86;20245;-84
2021/10/13 12:39:36;;;;;;;;;;;;;;;9.19;78.51;98399.61;1636549;86;26228;-83
2021/10/13 12:42:04;;;;;;;;;;;;;;;9.29;78.65;98403.76;1638617;86;20243;-82
2021/10/13 12:44:32;;;;;;;;;;;;;;;9.35;78.71;98401.21;1642468;86;20198;-82
2021/10/13 12:47:03;;;;;;;;;;;;;;;9.40;78.78;98399.97;1650844;86;25031;-83
2021/10/13 12:49:37;;;;;;;;;;;;;;;9.46;78.84;98407.41;1664944;85;21966;-88
2021/10/13 12:52:05;;;;;;;;;;;;;;;9.35;78.82;98407.28;1655431;85;26036;-88
2021/10/13 12:54:36;;;;;;;;;;;;;;;9.26;78.70;98403.13;1654362;85;24526;-84
2021/10/13 12:57:03;;;;;;;;;;;;;;;9.35;78.67;98402.05;1664661;85;20360;-82
2021/10/13 12:59:30;;;;;;;;;;;;;;;9.42;78.66;98400.72;1640487;86;24993;-88
2021/10/13 13:01:56;;;;;;;;;;;;;;;9.36;78.59;98405.04;1635583;86;21970;-84